Share

Oakwood, VA

RAWS BERWIND WV US (MBRWW2) Elev 1654 ft | 37.26 °N, 81.70 °W | Change Station

Current weather conditions updated 28 minutes ago

Clear
Clear
48 °F
Feels Like 48 °F
N
0
Wind Variable Wind from North
Gusts 4.0 mph
Sunrise 6:48 AM
Sunset 8:06 PM
Moon Waning Gibbous

Today is forecast to be Much Warmer than yesterday.

Pressure 30.22 in
Visibility 10.0 miles
Clouds Clear
Windchill 48 °F
Dew Point 40 °F
Humidity 73%
Rainfall -9999.00 in
Snow Depth Not available.
UV 0 out of 16
Pollen 9.30 out of 12
Air Quality Not available.
Flu Activity Regional
METAR KLNP 190435Z AUTO 00000KT 10SM CLR 11/00 A3022 RMK AO2

More Conditions Fewer Conditions

Pressure 30.22 in
Visibility 10.0 miles
Clouds Clear
Windchill 48 °F
Dew Point 40 °F
Humidity 73%
Rainfall -9999.00 in
Snow Depth Not available.
UV 0 out of 16
Pollen 9.30 out of 12
Air Quality Not available.
Flu Activity Regional
METAR KLNP 190435Z AUTO 00000KT 10SM CLR 11/00 A3022 RMK AO2

More Conditions Fewer Conditions

10-Day Weather Forecast

Almanac

Astronomy

Apr. 19, 2014 Rise Set
Actual Time 6:48 AM EDT 8:06 PM EDT
Civil Twilight 6:21 AM EDT 8:33 PM EDT
Nautical Twilight 5:48 AM EDT 9:06 PM EDT
Astronomical Twilight 5:14 AM EDT 9:40 PM EDT
Moon No Moon Rise 10:08 AM EDT
Length of Visible Light 14h 12m
Length of Day
13h 18m
Tomorrow will be 2m 12s longer.
Waning Gibbous, 83% of the Moon is Illuminated
Today
Waning Gibbous
Apr 22
Last Quarter
Apr 29
New
May 6
First Quarter
May 14
Full

Today's Extremes

State Highs State Lows

Community

  • Sunset Silhouettes
    Sunset Silhouettes
  • FL sunset Perico Isle
    FL sunset Perico Isle
  • Cloudy spring view
    Cloudy spring view
  • Old barn
    Old barn
  • What's for Lunch?
    What's for Lunch?

WunderPhotos

Upload Photos

1,702,640 photos uploaded!

WunderBlogs® & News

Nearby

Snow Depth

Station Depth Elevation
No new snow has been reported.

Coastal Water Temperatures

Place Temperature
No Stations Reporting

Earthquake Activity

City Distance Mag. Time & Date
No recent earthquake activity has been reported nearby.
Minimum magnitude displayed is 2.5.

Nearby Weather Stations

Station Location Temp. Windchill Dew Point Humidity Wind Precip. Elev Updated Type
RAWS BERWIND WV, Berwind, WV 48 °F 48 °F 40 °F 73% North  at  0 mph 0.00 in / hr 1654 ft 12:17 AM EDT MADIS
Ramey Flats, Clintwood, VA 50.0 °F - 42 °F 73% SSE  at  0.0 mph 0.00 in / hr 1795 ft 12:30 AM EDT Normal

Show More Stations Show Fewer Stations

What do you think?

We're not finished. Please let us know what you like, what you don't like, and what you are still missing.